Time;durP1;ratioP1;P1;durP2;ratioP2;P2;SDS_P1;SDS_P2;PMS_P1;PMS_P2;Temp;Humidity;BMP_temperature;BMP_pressure;BME280_temperature;BME280_humidity;BME280_pressure;Samples;Min_cycle;Max_cycle;Signal;HPM_P1;HPM_P2
2023/03/03 00:00:11;;;;;;;37.13;20.15;;;;;;;0.46;100.00;102467.47;5053769;28;20040;-52
2023/03/03 00:02:36;;;;;;;36.53;21.55;;;;;;;0.49;100.00;102476.22;5053608;28;20109;-53
2023/03/03 00:05:02;;;;;;;36.15;20.75;;;;;;;0.39;100.00;102444.75;5053589;28;20093;-54
2023/03/03 00:07:27;;;;;;;36.97;21.13;;;;;;;0.55;100.00;102476.41;5051473;28;20033;-53
2023/03/03 00:09:53;;;;;;;36.13;21.15;;;;;;;0.58;100.00;102475.66;5053690;28;20419;-52
2023/03/03 00:12:25;;;;;;;39.03;21.50;;;;;;;0.60;100.00;102481.75;5053569;28;20487;-51
2023/03/03 00:14:51;;;;;;;40.40;21.65;;;;;;;0.12;100.00;102394.59;5053416;28;20049;-51
2023/03/03 00:17:27;;;;;;;42.13;22.38;;;;;;;0.63;100.00;102487.03;5053365;28;20491;-51
2023/03/03 00:19:53;;;;;;;42.03;22.85;;;;;;;0.25;100.00;102401.97;5053615;28;20024;-52
2023/03/03 00:22:23;;;;;;;41.30;22.33;;;;;;;0.67;100.00;102477.66;5052128;28;20502;-52
2023/03/03 00:24:48;;;;;;;43.65;22.20;;;;;;;0.21;100.00;102397.50;5053240;28;20556;-54
2023/03/03 00:27:29;;;;;;;39.25;21.83;;;;;;;0.66;100.00;102474.19;5053521;28;20147;-50
2023/03/03 00:29:56;;;;;;;42.10;23.00;;;;;;;0.68;100.00;102476.81;5053208;28;20032;-51
2023/03/03 00:32:24;;;;;;;39.55;22.08;;;;;;;0.15;100.00;102374.84;5052125;28;20120;-54
2023/03/03 00:34:51;;;;;;;40.75;22.80;;;;;;;0.20;100.00;102388.88;5051674;28;20377;-54
2023/03/03 00:37:32;;;;;;;40.22;22.42;;;;;;;0.76;100.00;102498.72;5051769;28;20036;-51
2023/03/03 00:40:12;;;;;;;41.75;23.05;;;;;;;0.76;100.00;102486.63;5053153;28;20036;-51
2023/03/03 00:42:37;;;;;;;37.92;21.60;;;;;;;0.24;100.00;102387.22;5052946;28;20128;-53
2023/03/03 00:45:15;;;;;;;38.92;20.25;;;;;;;0.68;100.00;102475.13;5052758;28;20082;-49
2023/03/03 00:47:42;;;;;;;35.63;21.25;;;;;;;0.68;100.00;102482.00;5051748;28;20131;-51
2023/03/03 00:50:10;;;;;;;39.45;21.20;;;;;;;0.68;100.00;102489.78;5052926;28;20033;-50
2023/03/03 00:52:37;;;;;;;37.17;20.83;;;;;;;0.33;100.00;102427.28;5053220;28;20412;-53
2023/03/03 00:55:04;;;;;;;44.67;21.80;;;;;;;0.65;100.00;102479.31;5051636;28;20044;-55
2023/03/03 00:57:30;;;;;;;35.63;20.08;;;;;;;0.71;100.00;102492.47;5052955;28;20052;-53
2023/03/03 00:59:55;;;;;;;39.40;19.83;;;;;;;0.54;100.00;102450.44;5052824;28;20505;-47
2023/03/03 01:02:20;;;;;;;36.92;19.52;;;;;;;0.77;100.00;102493.56;5052681;28;20040;-54
2023/03/03 01:04:50;;;;;;;35.13;19.67;;;;;;;0.35;100.00;102398.88;5052507;28;20033;-53
2023/03/03 01:07:15;;;;;;;32.83;18.67;;;;;;;0.70;100.00;102457.03;5051265;28;20040;-53
2023/03/03 01:09:41;;;;;;;34.58;18.55;;;;;;;0.64;100.00;102449.94;5051133;28;20044;-50
2023/03/03 01:12:06;;;;;;;30.98;17.67;;;;;;;0.34;100.00;102397.97;5051354;28;20037;-51
2023/03/03 01:14:32;;;;;;;29.77;18.58;;;;;;;0.36;100.00;102400.59;5050681;28;20047;-51
2023/03/03 01:16:57;;;;;;;32.53;18.25;;;;;;;0.38;100.00;102415.38;5052267;28;20048;-51
2023/03/03 01:19:23;;;;;;;33.53;18.40;;;;;;;0.62;100.00;102472.31;5051077;28;20120;-51
2023/03/03 01:21:48;;;;;;;31.13;17.08;;;;;;;0.64;100.00;102467.19;5052306;28;20045;-51
2023/03/03 01:24:13;;;;;;;26.73;16.98;;;;;;;0.71;100.00;102487.28;5050820;28;20043;-48
2023/03/03 01:26:39;;;;;;;32.35;17.35;;;;;;;0.70;100.00;102490.72;5050992;28;20044;-49
2023/03/03 01:29:04;;;;;;;25.30;16.65;;;;;;;0.65;100.00;102481.91;5051971;28;20065;-53
2023/03/03 01:31:29;;;;;;;30.67;15.48;;;;;;;0.70;100.00;102495.91;5052050;28;20120;-53
2023/03/03 01:33:55;;;;;;;34.58;16.88;;;;;;;0.22;100.00;102407.03;5052052;28;20056;-50
2023/03/03 01:36:24;;;;;;;24.88;16.17;;;;;;;0.20;100.00;102385.38;5052066;28;20064;-54
2023/03/03 01:38:50;;;;;;;27.13;15.40;;;;;;;0.37;100.00;102412.75;5051916;28;20361;-53
2023/03/03 01:41:15;;;;;;;29.23;16.80;;;;;;;0.80;100.00;102490.19;5052264;28;20040;-52
2023/03/03 01:43:45;;;;;;;23.35;15.93;;;;;;;0.28;100.00;102400.34;5050354;28;20033;-50
2023/03/03 01:46:22;;;;;;;25.02;15.15;;;;;;;0.74;100.00;102493.47;5051940;28;20115;-51
2023/03/03 01:48:48;;;;;;;29.50;15.85;;;;;;;0.74;100.00;102490.00;5051746;28;20044;-50
2023/03/03 01:51:25;;;;;;;21.75;14.30;;;;;;;0.72;100.00;102489.06;5051613;28;20033;-53
2023/03/03 01:53:54;;;;;;;23.90;15.07;;;;;;;0.60;100.00;102480.88;5050415;28;20188;-50
2023/03/03 01:56:19;;;;;;;22.65;14.43;;;;;;;0.17;100.00;102403.41;5051524;28;20464;-53
2023/03/03 01:59:14;;;;;;;19.70;14.48;;;;;;;0.61;100.00;102506.84;5051154;28;20123;-52
2023/03/03 02:01:39;;;;;;;24.63;14.98;;;;;;;0.56;100.00;102487.66;5045289;28;20083;-52
2023/03/03 02:04:05;;;;;;;26.92;14.18;;;;;;;0.48;100.00;102482.22;5051661;28;20041;-51
2023/03/03 02:06:35;;;;;;;23.08;14.15;;;;;;;0.06;100.00;102409.94;5051592;28;20033;-53
2023/03/03 02:09:13;;;;;;;20.93;13.67;;;;;;;0.52;100.00;102476.31;5050112;28;20620;-53
2023/03/03 02:11:42;;;;;;;31.88;16.77;;;;;;;0.15;100.00;102410.22;5051432;28;20459;-50
2023/03/03 02:14:07;;;;;;;19.77;13.20;;;;;;;0.11;100.00;102403.19;5049865;28;20056;-52
2023/03/03 02:16:32;;;;;;;21.70;13.15;;;;;;;0.38;100.00;102451.63;5050289;28;20045;-52
2023/03/03 02:18:58;;;;;;;19.83;13.90;;;;;;;-0.02;100.00;102397.59;5050243;28;20553;-52
2023/03/03 02:21:26;;;;;;;19.90;13.40;;;;;;;-0.06;100.00;102400.03;5033238;28;20037;-53
2023/03/03 02:24:17;;;;;;;22.55;12.65;;;;;;;0.06;100.00;102430.63;5050060;28;20048;-52
2023/03/03 02:26:43;;;;;;;19.73;12.65;;;;;;;0.30;100.00;102478.09;5050013;28;20039;-50
2023/03/03 02:29:09;;;;;;;19.83;12.73;;;;;;;0.34;100.00;102503.28;5050173;28;20045;-48
2023/03/03 02:31:36;;;;;;;19.95;13.38;;;;;;;0.20;100.00;102453.59;5051375;28;20036;-49
2023/03/03 02:34:01;;;;;;;26.75;14.02;;;;;;;-0.01;100.00;102424.34;5048956;28;20391;-53
2023/03/03 02:36:29;;;;;;;20.65;13.40;;;;;;;0.31;100.00;102477.28;5049800;28;20120;-54
2023/03/03 02:39:10;;;;;;;21.63;13.25;;;;;;;0.18;100.00;102457.81;5050094;28;20048;-49
2023/03/03 02:41:39;;;;;;;22.00;13.13;;;;;;;-0.26;100.00;102369.94;5051417;28;20451;-50
2023/03/03 02:44:26;;;;;;;23.23;14.70;;;;;;;0.39;100.00;102476.72;5051265;28;20040;-53
2023/03/03 02:46:53;;;;;;;24.60;14.23;;;;;;;0.03;100.00;102415.00;5050535;28;20033;-50
2023/03/03 02:49:22;;;;;;;20.88;13.77;;;;;;;0.30;100.00;102468.63;5048938;28;20036;-52
2023/03/03 02:51:47;;;;;;;22.85;14.23;;;;;;;0.09;100.00;102436.78;5051235;28;20115;-51
2023/03/03 02:54:14;;;;;;;21.45;14.43;;;;;;;0.15;100.00;102446.47;5051251;28;20033;-50
2023/03/03 02:56:40;;;;;;;24.25;14.35;;;;;;;-0.01;100.00;102395.88;5051210;28;20044;-50
2023/03/03 02:59:05;;;;;;;22.58;14.48;;;;;;;0.41;100.00;102479.34;5049667;28;20028;-52
2023/03/03 03:01:35;;;;;;;20.48;14.13;;;;;;;0.01;100.00;102399.41;5051054;28;20436;-51
2023/03/03 03:04:06;;;;;;;25.88;14.98;;;;;;;-0.06;100.00;102394.84;5050852;28;20029;-52
2023/03/03 03:06:31;;;;;;;31.90;14.48;;;;;;;-0.14;100.00;102391.09;5048636;28;20071;-51
2023/03/03 03:08:56;;;;;;;25.75;15.50;;;;;;;0.05;100.00;102427.16;5049730;28;20064;-53
2023/03/03 03:11:22;;;;;;;26.17;16.35;;;;;;;-0.17;100.00;102393.56;5054370;28;20048;-50
2023/03/03 03:13:47;;;;;;;21.83;15.00;;;;;;;-0.01;100.00;102427.84;5054544;28;20049;-50
2023/03/03 03:16:12;;;;;;;24.90;15.48;;;;;;;-0.18;100.00;102409.94;5054630;28;20037;-50
2023/03/03 03:18:38;;;;;;;27.25;15.90;;;;;;;-0.19;100.00;102416.81;5054393;28;20060;-51
2023/03/03 03:21:10;;;;;;;36.35;16.10;;;;;;;-0.34;100.00;102389.50;5053409;28;20440;-51
2023/03/03 03:23:37;;;;;;;31.27;16.25;;;;;;;-0.08;100.00;102459.47;5054413;28;20040;-52
2023/03/03 03:26:03;;;;;;;25.40;15.93;;;;;;;-0.04;100.00;102483.78;5054533;28;20083;-50
2023/03/03 03:28:29;;;;;;;26.55;15.75;;;;;;;-0.55;100.00;102391.31;5054103;28;20468;-51
2023/03/03 03:30:55;;;;;;;25.48;16.08;;;;;;;-0.21;100.00;102456.41;5053235;28;20082;-49
2023/03/03 03:33:20;;;;;;;25.95;15.55;;;;;;;-0.75;100.00;102393.13;5052912;28;20032;-53
2023/03/03 03:35:47;;;;;;;23.63;16.10;;;;;;;-0.39;100.00;102481.59;5053212;28;20040;-51
2023/03/03 03:38:13;;;;;;;24.55;15.50;;;;;;;-1.06;100.00;102391.06;5053092;28;20052;-52
2023/03/03 03:40:39;;;;;;;29.08;14.65;;;;;;;-0.60;100.00;102472.19;5054045;28;20037;-50
2023/03/03 03:43:04;;;;;;;28.42;17.33;;;;;;;-0.83;100.00;102426.44;5053931;28;20456;-51
2023/03/03 03:45:30;;;;;;;33.78;18.45;;;;;;;-0.74;100.00;102416.47;5054005;28;20033;-49
2023/03/03 03:47:55;;;;;;;35.28;19.27;;;;;;;-0.09;100.00;102498.28;5053870;28;20036;-50
2023/03/03 03:50:20;;;;;;;32.92;19.38;;;;;;;-0.46;100.00;102408.03;5054115;28;20102;-47
2023/03/03 03:52:46;;;;;;;36.40;20.27;;;;;;;0.11;100.00;102494.69;5054052;28;20365;-47
2023/03/03 03:55:11;;;;;;;49.20;22.27;;;;;;;0.29;100.00;102510.03;5051408;28;20388;-50
2023/03/03 03:57:36;;;;;;;43.88;22.58;;;;;;;0.39;100.00;102504.31;5053625;28;20029;-50
2023/03/03 04:00:04;;;;;;;44.08;22.58;;;;;;;0.07;100.00;102427.19;5052589;28;20060;-52
2023/03/03 04:02:29;;;;;;;55.05;24.77;;;;;;;0.04;100.00;102414.16;5052405;28;20052;-51
2023/03/03 04:04:55;;;;;;;45.42;24.63;;;;;;;0.65;100.00;102520.75;5052535;28;20037;-50
2023/03/03 04:07:20;;;;;;;56.58;24.35;;;;;;;0.18;100.00;102418.97;5052403;28;20036;-48
2023/03/03 04:09:46;;;;;;;47.05;23.42;;;;;;;0.20;100.00;102419.94;5051359;28;20059;-51
2023/03/03 04:12:11;;;;;;;38.92;21.70;;;;;;;0.17;100.00;102406.88;5053503;28;20040;-48
2023/03/03 04:14:37;;;;;;;42.40;22.95;;;;;;;0.71;100.00;102497.66;5053545;28;20049;-50
2023/03/03 04:17:02;;;;;;;45.70;23.63;;;;;;;0.62;100.00;102481.78;5052145;28;20108;-49
2023/03/03 04:19:27;;;;;;;42.40;23.38;;;;;;;0.72;100.00;102502.03;5053610;28;20037;-52
2023/03/03 04:21:53;;;;;;;44.13;22.52;;;;;;;0.61;100.00;102480.06;5053079;28;20384;-51
2023/03/03 04:24:18;;;;;;;41.05;23.15;;;;;;;0.22;100.00;102425.16;5053404;28;20400;-53
2023/03/03 04:26:44;;;;;;;39.22;21.50;;;;;;;0.64;100.00;102493.13;5052279;28;20060;-49
2023/03/03 04:29:09;;;;;;;43.65;23.10;;;;;;;0.29;100.00;102429.72;5053322;28;20040;-49
2023/03/03 04:31:34;;;;;;;47.60;24.40;;;;;;;0.77;100.00;102503.06;5051718;28;20520;-52
2023/03/03 04:33:59;;;;;;;45.28;25.08;;;;;;;0.39;100.00;102435.28;5053318;28;20527;-53
2023/03/03 04:36:25;;;;;;;46.90;24.33;;;;;;;0.41;100.00;102425.84;5053246;28;20037;-50
2023/03/03 04:38:50;;;;;;;49.00;25.40;;;;;;;0.42;100.00;102417.25;5053136;28;20029;-51
2023/03/03 04:41:16;;;;;;;54.47;25.67;;;;;;;0.99;100.00;102516.78;5052792;28;20088;-49
2023/03/03 04:43:41;;;;;;;53.50;24.75;;;;;;;1.03;100.00;102512.56;5051485;28;20049;-48
2023/03/03 04:46:06;;;;;;;56.40;25.75;;;;;;;0.93;100.00;102484.59;5052865;28;20037;-49
2023/03/03 04:48:32;;;;;;;51.13;24.88;;;;;;;1.08;100.00;102521.41;5052973;28;20063;-47
2023/03/03 04:50:57;;;;;;;55.85;25.67;;;;;;;1.06;100.00;102492.81;5051447;28;20417;-49
2023/03/03 04:53:23;;;;;;;51.78;25.52;;;;;;;1.14;100.00;102514.69;5052811;28;20135;-49
2023/03/03 04:55:52;;;;;;;55.60;25.83;;;;;;;1.09;100.00;102503.28;5052924;28;20392;-48
2023/03/03 04:58:18;;;;;;;53.70;26.20;;;;;;;1.03;100.00;102487.53;5051309;28;20380;-53
2023/03/03 05:00:45;;;;;;;61.83;26.08;;;;;;;0.80;100.00;102446.13;5051003;28;20413;-51
2023/03/03 05:03:11;;;;;;;57.53;25.63;;;;;;;1.17;100.00;102507.84;5053115;28;20475;-49
2023/03/03 05:05:37;;;;;;;57.13;26.30;;;;;;;1.16;100.00;102506.97;5034846;28;20457;-49
2023/03/03 05:08:02;;;;;;;64.20;26.92;;;;;;;0.75;100.00;102433.03;5052688;28;20037;-48
2023/03/03 05:10:28;;;;;;;56.50;26.15;;;;;;;0.79;100.00;102441.81;5034651;28;20039;-52
2023/03/03 05:12:54;;;;;;;52.67;26.00;;;;;;;1.24;100.00;102517.59;5052439;28;20040;-51
2023/03/03 05:15:19;;;;;;;62.05;27.40;;;;;;;1.14;100.00;102513.81;5049433;28;20623;-50
2023/03/03 05:17:44;;;;;;;58.90;27.20;;;;;;;0.82;100.00;102439.28;5052594;28;20029;-49
2023/03/03 05:20:11;;;;;;;67.50;29.27;;;;;;;1.25;100.00;102532.31;5052458;28;20044;-51
2023/03/03 05:22:36;;;;;;;62.17;29.35;;;;;;;1.24;100.00;102520.19;5052262;28;20079;-50
2023/03/03 05:25:01;;;;;;;65.80;31.00;;;;;;;0.76;100.00;102436.50;5052308;28;20441;-49
2023/03/03 05:27:27;;;;;;;66.05;29.45;;;;;;;0.75;100.00;102432.16;5052161;28;20528;-50
2023/03/03 05:29:52;;;;;;;75.47;30.70;;;;;;;1.20;100.00;102531.31;5051936;28;20179;-49
2023/03/03 05:32:17;;;;;;;74.05;32.42;;;;;;;1.12;100.00;102525.84;5049770;28;20116;-50
2023/03/03 05:34:42;;;;;;;67.88;30.58;;;;;;;0.65;100.00;102425.78;5052210;28;20476;-50
2023/03/03 05:37:08;;;;;;;138.43;34.63;;;;;;;0.53;100.00;102415.88;5052057;28;20095;-52
2023/03/03 05:39:34;;;;;;;162.55;34.72;;;;;;;0.71;100.00;102449.31;5052015;28;20092;-50
2023/03/03 05:41:59;;;;;;;162.95;35.85;;;;;;;0.60;100.00;102435.13;5050712;28;20044;-53
2023/03/03 05:44:25;;;;;;;185.82;37.40;;;;;;;1.07;100.00;102511.84;5051776;28;20036;-50
2023/03/03 05:46:51;;;;;;;212.35;41.00;;;;;;;0.60;100.00;102434.22;5051969;28;20028;-51
2023/03/03 05:49:16;;;;;;;176.88;39.10;;;;;;;0.92;100.00;102491.50;5050585;28;20366;-52
2023/03/03 05:51:41;;;;;;;192.93;39.42;;;;;;;0.67;100.00;102451.75;5051620;28;20041;-49
2023/03/03 05:54:07;;;;;;;188.30;40.55;;;;;;;0.74;100.00;102453.69;5051714;28;20039;-52
2023/03/03 05:56:32;;;;;;;134.90;33.40;;;;;;;0.64;100.00;102429.22;5051563;28;20033;-49
2023/03/03 05:58:57;;;;;;;193.25;40.47;;;;;;;0.66;100.00;102435.31;5051654;28;20060;-51
2023/03/03 06:01:23;;;;;;;197.68;40.35;;;;;;;0.58;100.00;102423.84;5043982;28;20384;-49
2023/03/03 06:03:48;;;;;;;200.23;40.33;;;;;;;1.00;100.00;102508.16;5045535;28;20441;-51
2023/03/03 06:06:15;;;;;;;245.60;44.33;;;;;;;1.15;100.00;102523.34;5050200;28;20449;-51
2023/03/03 06:08:41;;;;;;;161.18;37.13;;;;;;;0.76;100.00;102450.31;5050475;28;20345;-49
2023/03/03 06:11:06;;;;;;;234.20;43.17;;;;;;;0.76;100.00;102445.13;5049944;28;20041;-51
2023/03/03 06:13:32;;;;;;;164.32;38.25;;;;;;;0.79;100.00;102453.03;5050076;28;20056;-49
2023/03/03 06:15:57;;;;;;;165.82;40.20;;;;;;;0.84;100.00;102460.97;5050071;28;20407;-52
2023/03/03 06:18:22;;;;;;;180.82;37.47;;;;;;;0.82;100.00;102462.59;5036119;28;20116;-49
2023/03/03 06:20:52;;;;;;;239.88;43.08;;;;;;;0.72;100.00;102437.22;5047053;28;20090;-48
2023/03/03 06:23:17;;;;;;;185.65;37.22;;;;;;;1.18;100.00;102526.03;5048131;28;20029;-49
2023/03/03 06:25:43;;;;;;;321.92;50.60;;;;;;;1.17;100.00;102519.09;5034309;28;20437;-52
2023/03/03 06:28:08;;;;;;;247.63;42.83;;;;;;;1.31;100.00;102550.69;5044599;28;20542;-50
2023/03/03 06:30:34;;;;;;;289.88;47.53;;;;;;;1.26;100.00;102558.28;5031259;28;20146;-49
2023/03/03 06:32:59;;;;;;;288.33;45.90;;;;;;;1.30;100.00;102543.72;5045248;28;20046;-48
2023/03/03 06:35:24;;;;;;;233.80;42.47;;;;;;;1.31;100.00;102543.78;5031477;28;20120;-52
2023/03/03 06:37:50;;;;;;;208.73;40.78;;;;;;;1.29;100.00;102553.22;5043632;28;20064;-51
2023/03/03 06:40:16;;;;;;;123.97;35.72;;;;;;;0.87;100.00;102463.66;5048952;28;20048;-52
2023/03/03 06:42:41;;;;;;;207.27;42.50;;;;;;;1.35;100.00;102547.34;5050085;28;20041;-54
2023/03/03 06:45:07;;;;;;;126.65;37.05;;;;;;;1.37;100.00;102556.06;5037036;28;20113;-52
2023/03/03 06:47:32;;;;;;;177.63;40.50;;;;;;;1.38;100.00;102557.81;5055251;28;20320;-53
2023/03/03 06:49:58;;;;;;;152.13;37.63;;;;;;;1.42;100.00;102564.88;5053897;28;20476;-52
2023/03/03 06:52:25;;;;;;;329.95;49.85;;;;;;;1.31;100.00;102542.91;5049053;28;20040;-51
2023/03/03 06:54:56;;;;;;;249.13;44.88;;;;;;;1.29;100.00;102548.03;5052707;28;20037;-55
2023/03/03 06:57:24;;;;;;;;;;;;;;;1.44;100.00;102555.41;5053969;28;20135;-51
2023/03/03 06:59:52;;;;;;;181.93;38.67;;;;;;;0.97;100.00;102470.88;5087367;28;19919;-50
2023/03/03 07:02:18;;;;;;;136.52;37.03;;;;;;;1.51;100.00;102566.06;5045934;28;20120;-48
2023/03/03 07:04:45;;;;;;;220.73;43.42;;;;;;;1.39;100.00;102544.91;5049670;28;20115;-49
2023/03/03 07:07:23;;;;;;;225.13;41.75;;;;;;;1.03;100.00;102484.94;5042150;28;20038;-51
2023/03/03 07:09:53;;;;;;;220.75;42.58;;;;;;;1.45;100.00;102578.84;5068044;28;20048;-49
2023/03/03 07:12:21;;;;;;;197.25;40.15;;;;;;;1.45;100.00;102558.06;5038656;28;20040;-48
2023/03/03 07:14:54;;;;;;;151.82;39.45;;;;;;;1.53;100.00;102564.38;5037988;28;20125;-50
2023/03/03 07:17:21;;;;;;;117.57;36.47;;;;;;;1.45;100.00;102542.50;5033564;28;20033;-52
2023/03/03 07:19:47;;;;;;;221.15;44.97;;;;;;;1.67;100.00;102575.19;5050790;28;20032;-52
2023/03/03 07:22:12;;;;;;;172.57;39.35;;;;;;;1.77;100.00;102582.44;5044807;28;20042;-50
2023/03/03 07:24:38;;;;;;;210.48;43.92;;;;;;;1.82;100.00;102580.88;5036772;28;20509;-53
2023/03/03 07:27:13;;;;;;;157.48;35.53;;;;;;;1.63;100.00;102548.25;5038696;28;20028;-54
2023/03/03 07:29:42;;;;;;;157.77;36.75;;;;;;;1.82;100.00;102583.47;5033551;28;20030;-52
2023/03/03 07:32:24;;;;;;;182.38;39.15;;;;;;;1.78;100.00;102572.94;5070961;28;20041;-52
2023/03/03 07:34:51;;;;;;;114.43;35.30;;;;;;;1.86;100.00;102577.53;5040208;28;20032;-51
2023/03/03 07:37:24;;;;;;;130.75;36.67;;;;;;;1.46;100.00;102510.50;5039158;28;20047;-51
2023/03/03 07:39:50;;;;;;;131.20;34.42;;;;;;;1.55;100.00;102510.81;5037235;28;20049;-54
2023/03/03 07:42:26;;;;;;;146.48;37.33;;;;;;;2.05;100.00;102603.22;5046418;28;20086;-51
2023/03/03 07:44:54;;;;;;;119.10;35.92;;;;;;;1.67;100.00;102529.34;5038366;28;20475;-51
2023/03/03 07:47:28;;;;;;;137.35;36.92;;;;;;;2.11;100.00;102602.50;5034009;28;20067;-51
2023/03/03 07:49:59;;;;;;;143.57;36.70;;;;;;;1.72;100.00;102523.44;5046528;28;20086;-49
2023/03/03 07:52:39;;;;;;;125.60;36.90;;;;;;;1.81;100.00;102528.91;5053198;28;20075;-51
2023/03/03 07:55:35;;;;;;;132.63;35.10;;;;;;;2.31;100.00;102606.59;5041222;28;20033;-53
2023/03/03 07:58:40;;;;;;;113.90;35.63;;;;;;;2.37;100.00;102595.47;5045880;28;20029;-50
2023/03/03 08:01:24;;;;;;;103.47;34.85;;;;;;;2.42;100.00;102591.31;5042493;28;20132;-53
2023/03/03 08:03:50;;;;;;;77.47;31.63;;;;;;;2.19;100.00;102543.88;5053774;28;20048;-52
2023/03/03 08:06:39;;;;;;;72.28;31.77;;;;;;;2.67;100.00;102611.97;5071157;28;20032;-50
2023/03/03 08:09:10;;;;;;;97.45;33.20;;;;;;;2.73;100.00;102617.34;5072195;28;20098;-52
2023/03/03 08:11:48;;;;;;;65.40;28.60;;;;;;;2.30;100.00;102520.81;5073573;28;20395;-52
2023/03/03 08:14:15;;;;;;;65.43;29.75;;;;;;;1.95;100.00;102486.94;5057643;28;20480;-51
2023/03/03 08:16:40;;;;;;;71.78;30.45;;;;;;;2.86;100.00;102608.16;5039681;28;20438;-49
2023/03/03 08:19:06;;;;;;;72.63;29.50;;;;;;;2.81;100.00;102626.22;5051263;28;20053;-51
2023/03/03 08:21:33;;;;;;;65.53;27.13;;;;;;;2.77;100.00;102606.19;5047267;28;20120;-51
2023/03/03 08:23:58;;;;;;;59.33;28.90;;;;;;;2.87;100.00;102633.31;5047248;28;20056;-51
2023/03/03 08:26:24;;;;;;;61.53;28.50;;;;;;;2.51;100.00;102561.25;5051890;28;20472;-53
2023/03/03 08:28:50;;;;;;;60.45;28.30;;;;;;;2.45;100.00;102550.69;5053207;28;20033;-51
2023/03/03 08:31:16;;;;;;;65.72;28.95;;;;;;;2.54;100.00;102558.72;5049076;28;20036;-52
2023/03/03 08:33:42;;;;;;;57.08;28.48;;;;;;;3.09;100.00;102640.88;5042628;28;20029;-50
2023/03/03 08:36:08;;;;;;;54.33;27.20;;;;;;;2.75;100.00;102585.31;5052375;28;20052;-55
2023/03/03 08:38:33;;;;;;;54.05;28.95;;;;;;;3.14;100.00;102647.06;5053208;28;20104;-54
2023/03/03 08:40:59;;;;;;;50.67;26.42;;;;;;;3.04;100.00;102626.84;5051554;28;20073;-54
2023/03/03 08:43:24;;;;;;;50.92;27.83;;;;;;;2.82;100.00;102561.25;5031900;28;20052;-50
2023/03/03 08:45:58;;;;;;;50.03;26.27;;;;;;;3.40;100.00;102653.84;5052840;28;20036;-51
2023/03/03 08:48:23;;;;;;;52.95;27.48;;;;;;;3.46;100.00;102624.47;5052956;28;20079;-54
2023/03/03 08:50:49;;;;;;;45.92;25.75;;;;;;;3.27;100.00;102582.34;5050571;28;20068;-50
2023/03/03 08:53:15;;;;;;;43.22;27.77;;;;;;;3.86;100.00;102658.44;5052722;28;20448;-51
2023/03/03 08:55:41;;;;;;;40.60;25.05;;;;;;;3.47;100.00;102548.13;5039458;28;20156;-51
2023/03/03 08:58:06;;;;;;;36.13;23.10;;;;;;;4.00;100.00;102623.16;5032637;28;20025;-51
2023/03/03 09:00:32;;;;;;;29.10;20.58;;;;;;;3.84;100.00;102582.00;5032649;28;20045;-54
2023/03/03 09:02:57;;;;;;;31.00;20.70;;;;;;;3.91;100.00;102589.13;5032478;28;20037;-52
2023/03/03 09:05:24;;;;;;;32.13;20.75;;;;;;;4.52;100.00;102640.84;5047177;28;20040;-53
2023/03/03 09:07:50;;;;;;;26.98;19.27;;;;;;;4.29;100.00;102575.16;5051000;28;20063;-51
2023/03/03 09:10:19;;;;;;;25.42;16.45;;;;;;;4.57;100.00;102657.47;5050869;28;20381;-52
2023/03/03 09:12:49;;;;;;;22.80;16.77;;;;;;;4.15;100.00;102565.28;5045956;28;20033;-53
2023/03/03 09:15:35;;;;;;;19.83;14.63;;;;;;;4.72;100.00;102646.47;5036905;28;20115;-53
2023/03/03 09:18:21;;;;;;;19.65;13.40;;;;;;;5.71;100.00;102639.59;5037987;28;20044;-53
2023/03/03 09:20:51;;;;;;;13.18;9.80;;;;;;;6.59;100.00;102612.09;5051023;28;20052;-50
2023/03/03 09:23:22;;;;;;;8.43;7.30;;;;;;;7.75;100.00;102626.34;5047756;28;20040;-53
2023/03/03 09:25:48;;;;;;;11.00;6.55;;;;;;;8.17;100.00;102594.25;5049967;28;20033;-52
2023/03/03 09:28:24;;;;;;;8.25;5.22;;;;;;;9.00;100.00;102668.16;5049913;28;20091;-52
2023/03/03 09:30:51;;;;;;;8.55;5.05;;;;;;;9.45;100.00;102619.19;5051092;28;20469;-52
2023/03/03 09:33:43;;;;;;;6.15;5.15;;;;;;;9.57;100.00;102711.22;5050706;28;20033;-51
2023/03/03 09:36:14;;;;;;;;;;;;;;;9.25;100.00;102700.63;5051316;28;20036;-51
2023/03/03 09:38:43;;;;;;;4.97;4.28;;;;;;;9.47;100.00;102691.03;5051706;28;19912;-51
2023/03/03 09:41:33;;;;;;;6.22;3.97;;;;;;;10.22;100.00;102713.88;5050587;28;20032;-52
2023/03/03 09:44:35;;;;;;;4.93;3.50;;;;;;;10.85;100.00;102712.84;5051944;28;20044;-55
2023/03/03 09:47:03;;;;;;;6.13;3.58;;;;;;;10.83;100.00;102726.91;5051897;28;20427;-53
2023/03/03 09:49:34;;;;;;;5.13;3.90;;;;;;;10.45;100.00;102713.84;5050447;28;20504;-52
2023/03/03 09:52:02;;;;;;;3.72;3.20;;;;;;;10.57;100.00;102753.28;5050550;28;20029;-51
2023/03/03 09:54:43;;;;;;;7.43;3.72;;;;;;;10.10;100.00;102745.41;5051642;28;20039;-52
2023/03/03 09:57:36;;;;;;;7.97;3.15;;;;;;;10.14;100.00;102734.06;5051729;28;20063;-54
2023/03/03 10:00:14;;;;;;;5.25;3.35;;;;;;;9.68;100.00;102684.94;5051706;28;20384;-48
2023/03/03 10:02:45;;;;;;;5.05;2.97;;;;;;;9.66;100.00;102755.06;5051397;28;20437;-51
2023/03/03 10:05:32;;;;;;;5.55;3.33;;;;;;;8.92;100.00;102734.66;5051663;28;20060;-54
2023/03/03 10:08:10;;;;;;;8.60;3.35;;;;;;;8.38;100.00;102736.09;5051440;28;20037;-51
2023/03/03 10:11:19;;;;;;;5.43;3.10;;;;;;;7.77;100.00;102724.22;5051760;28;20037;-49
2023/03/03 10:13:53;;;;;;;5.50;3.35;;;;;;;7.05;100.00;102723.47;5038819;28;20064;-50
2023/03/03 10:16:28;;;;;;;4.60;3.03;;;;;;;6.98;100.00;102704.16;5051457;28;20044;-52
2023/03/03 10:19:08;;;;;;;5.45;3.42;;;;;;;6.86;100.00;102690.06;5051230;28;20037;-53
2023/03/03 10:21:50;;;;;;;3.60;2.78;;;;;;;6.66;100.00;102702.88;5051247;28;20036;-51
2023/03/03 10:24:30;;;;;;;4.57;3.17;;;;;;;6.95;100.00;102692.78;5050038;28;20137;-51
2023/03/03 10:27:20;;;;;;;5.18;3.03;;;;;;;7.71;100.00;102695.34;5050213;28;20029;-47
2023/03/03 10:30:07;;;;;;;4.85;3.03;;;;;;;9.32;100.00;102698.88;5051054;28;20084;-53
2023/03/03 10:32:49;;;;;;;3.17;2.40;;;;;;;10.76;100.00;102722.53;5049859;28;20037;-50
2023/03/03 10:35:39;;;;;;;5.53;2.30;;;;;;;11.50;100.00;102736.22;5049737;28;20040;-53
2023/03/03 10:38:20;;;;;;;4.45;2.30;;;;;;;10.81;100.00;102747.09;5051012;28;20044;-51
2023/03/03 10:40:51;;;;;;;;;;;;;;;10.08;100.00;102734.91;5051909;28;20040;-54
2023/03/03 10:43:41;;;;;;;3.33;1.73;;;;;;;9.38;100.00;102739.22;5051204;28;19917;-52
2023/03/03 10:46:24;;;;;;;2.72;1.70;;;;;;;8.62;100.00;102727.50;5051254;28;20029;-53
2023/03/03 10:49:05;;;;;;;5.57;2.22;;;;;;;8.26;100.00;102717.63;5051383;28;20032;-55
2023/03/03 10:51:32;;;;;;;5.05;2.50;;;;;;;7.76;100.00;102729.47;5049510;28;20449;-51
2023/03/03 10:54:13;;;;;;;3.28;2.30;;;;;;;7.93;100.00;102717.38;5051245;28;20029;-51
2023/03/03 10:56:58;;;;;;;3.47;2.22;;;;;;;8.09;100.00;102665.91;5051100;28;20036;-52
2023/03/03 10:59:35;;;;;;;2.92;2.25;;;;;;;7.90;100.00;102657.03;5050907;28;20025;-54
2023/03/03 11:02:21;;;;;;;6.15;2.60;;;;;;;7.89;100.00;102723.44;5051416;28;20040;-54
2023/03/03 11:05:05;;;;;;;2.95;2.65;;;;;;;7.42;100.00;102729.97;5049892;28;20025;-53
2023/03/03 11:07:50;;;;;;;4.32;2.72;;;;;;;7.07;100.00;102658.88;5050893;28;20116;-53
2023/03/03 11:10:24;;;;;;;6.25;3.08;;;;;;;7.19;100.00;102709.66;5049777;28;20021;-49
2023/03/03 11:13:18;;;;;;;5.55;3.35;;;;;;;6.92;100.00;102629.94;5049516;28;20041;-53
2023/03/03 11:15:52;;;;;;;4.43;2.90;;;;;;;8.92;100.00;102708.41;5049519;28;20049;-54
2023/03/03 11:18:32;;;;;;;5.47;2.78;;;;;;;9.95;100.00;102705.97;5049529;28;20472;-52
2023/03/03 11:21:06;;;;;;;4.70;3.03;;;;;;;10.86;100.00;102732.19;5050093;28;20042;-53